Time;durP1;ratioP1;P1;durP2;ratioP2;P2;SDS_P1;SDS_P2;PMS_P1;PMS_P2;Temp;Humidity;BMP_temperature;BMP_pressure;BME280_temperature;BME280_humidity;BME280_pressure;Samples;Min_cycle;Max_cycle;Signal;HPM_P1;HPM_P2
2021/04/02 00:00:58;;;;;;;21.42;19.12;;;;;;;13.31;56.04;99365.06;1724539;81;21778;-81
2021/04/02 00:03:35;;;;;;;23.18;19.85;;;;;;;13.24;56.25;99356.59;1768390;80;21177;-84
2021/04/02 00:06:06;;;;;;;22.75;18.70;;;;;;;13.21;56.42;99356.23;1771353;80;21148;-83
2021/04/02 00:08:34;;;;;;;23.57;19.37;;;;;;;13.18;56.24;99360.70;1765487;80;21138;-84
2021/04/02 00:11:07;;;;;;;21.90;19.55;;;;;;;13.18;56.06;99358.02;1785651;80;21197;-83
2021/04/02 00:13:41;;;;;;;20.48;18.27;;;;;;;13.19;55.38;99358.33;1774383;78;21163;-84
2021/04/02 00:16:10;;;;;;;24.27;17.75;;;;;;;13.21;55.46;99358.92;1761517;80;21154;-84
2021/04/02 00:18:39;;;;;;;22.20;18.45;;;;;;;13.22;55.38;99360.53;1772069;78;21690;-83
2021/04/02 00:21:09;;;;;;;21.20;18.40;;;;;;;13.23;55.30;99369.67;1777800;79;21158;-83
2021/04/02 00:23:38;;;;;;;23.87;18.20;;;;;;;13.26;55.53;99356.38;1737875;80;21037;-83
2021/04/02 00:26:16;;;;;;;21.65;18.00;;;;;;;13.29;55.06;99343.85;1743383;80;21139;-82
2021/04/02 00:28:44;;;;;;;20.92;16.05;;;;;;;13.31;54.91;99328.41;1750848;80;21685;-83
2021/04/02 00:31:12;;;;;;;20.40;16.15;;;;;;;13.32;54.73;99332.73;1744899;80;21147;-82
2021/04/02 00:33:40;;;;;;;17.35;14.73;;;;;;;13.31;54.03;99328.41;1765168;80;21049;-83
2021/04/02 00:36:08;;;;;;;19.62;15.58;;;;;;;13.32;53.88;99316.67;1786097;78;21274;-82
2021/04/02 00:38:34;;;;;;;21.15;14.40;;;;;;;13.33;54.05;99316.14;1727278;80;21136;-83
2021/04/02 00:41:07;;;;;;;15.28;13.80;;;;;;;13.31;54.11;99308.34;1749273;78;21237;-83
2021/04/02 00:43:38;;;;;;;16.48;14.60;;;;;;;13.34;54.28;99303.87;1722526;81;21282;-82
2021/04/02 00:46:08;;;;;;;16.62;14.03;;;;;;;13.35;54.17;99309.50;1755158;80;21097;-83
2021/04/02 00:48:37;;;;;;;16.30;13.62;;;;;;;13.32;54.16;99289.91;1758349;80;21267;-83
2021/04/02 00:51:09;;;;;;;20.32;13.72;;;;;;;13.31;53.97;99296.83;1746305;80;21207;-83
2021/04/02 00:53:41;;;;;;;19.00;15.48;;;;;;;13.28;54.11;99290.05;1776218;77;21110;-83
2021/04/02 00:56:12;;;;;;;16.05;14.35;;;;;;;13.22;54.21;99276.24;1754316;80;21629;-82
2021/04/02 00:58:40;;;;;;;17.98;15.90;;;;;;;13.17;54.42;99276.14;1756043;80;21306;-83
2021/04/02 01:01:10;;;;;;;22.02;15.80;;;;;;;13.15;54.29;99276.90;1754983;80;21744;-82
2021/04/02 01:03:39;;;;;;;21.25;15.25;;;;;;;13.04;54.52;99273.95;1767388;80;21304;-81
2021/04/02 01:06:16;;;;;;;19.42;16.57;;;;;;;12.99;54.53;99279.70;1824697;77;22224;-83
2021/04/02 01:08:43;;;;;;;19.48;17.15;;;;;;;12.92;54.82;99273.14;1820472;77;21761;-84
2021/04/02 01:11:20;;;;;;;20.10;16.30;;;;;;;12.83;55.19;99267.30;1828306;75;21330;-82
2021/04/02 01:13:58;;;;;;;19.57;15.85;;;;;;;12.77;55.50;99269.55;1829313;77;21155;-83
2021/04/02 01:16:29;;;;;;;19.98;16.40;;;;;;;12.71;55.85;99262.95;1826255;77;21265;-83
2021/04/02 01:19:35;;;;;;;19.98;16.67;;;;;;;12.61;56.06;99256.30;1820227;77;21625;-82
2021/04/02 01:22:10;;;;;;;22.90;16.67;;;;;;;12.58;56.14;99246.09;1833342;77;21152;-81
2021/04/02 01:25:10;;;;;;;19.40;17.25;;;;;;;12.49;56.54;99236.76;1827233;77;21693;-82
2021/04/02 01:28:22;;;;;;;20.15;18.05;;;;;;;12.43;56.50;99222.95;1837248;77;21165;-77
2021/04/02 01:30:53;;;;;;;19.90;17.67;;;;;;;12.33;56.78;99236.05;1822106;77;21933;-82
2021/04/02 01:33:21;;;;;;;21.35;19.05;;;;;;;12.21;57.12;99240.83;1826415;77;21305;-82
2021/04/02 01:35:49;;;;;;;21.82;17.17;;;;;;;12.16;57.05;99235.34;1806892;78;21147;-82
2021/04/02 01:38:33;;;;;;;22.43;18.77;;;;;;;12.15;57.12;99229.72;1834725;77;21363;-83
2021/04/02 01:41:07;;;;;;;23.43;19.13;;;;;;;12.11;57.13;99232.55;1786444;79;21155;-82
2021/04/02 01:43:42;;;;;;;21.20;17.43;;;;;;;12.04;57.18;99235.82;1779308;79;21140;-82
2021/04/02 01:46:13;;;;;;;23.27;18.00;;;;;;;12.00;57.26;99241.32;1778950;79;21023;-83
2021/04/02 01:48:44;;;;;;;21.60;17.07;;;;;;;11.95;56.94;99235.30;1739471;81;21173;-81
2021/04/02 01:51:13;;;;;;;20.45;17.48;;;;;;;11.93;56.91;99238.72;1780259;80;21597;-82
2021/04/02 01:53:49;;;;;;;25.80;17.20;;;;;;;11.93;56.72;99245.92;1765366;80;21160;-83
2021/04/02 01:56:19;;;;;;;;;;;;;;;11.93;56.67;99238.72;1760252;80;21005;-84
2021/04/02 01:58:49;;;;;;;21.30;17.20;;;;;;;11.94;56.56;99232.84;1735337;81;20158;-84
2021/04/02 02:01:19;;;;;;;18.83;16.43;;;;;;;11.87;56.67;99226.23;1736251;82;21288;-83
2021/04/02 02:03:50;;;;;;;19.00;16.93;;;;;;;11.90;56.69;99225.00;1701398;83;21196;-84
2021/04/02 02:06:18;;;;;;;24.27;17.30;;;;;;;11.92;56.52;99226.92;1697071;83;21148;-82
2021/04/02 02:08:47;;;;;;;18.70;16.70;;;;;;;11.92;56.54;99226.39;1728193;82;21174;-83
2021/04/02 02:11:18;;;;;;;21.50;17.15;;;;;;;11.81;56.55;99206.59;1734844;81;21164;-84
2021/04/02 02:13:54;;;;;;;21.45;17.48;;;;;;;11.93;56.53;99225.89;1763247;80;21626;-82
2021/04/02 02:16:24;;;;;;;;;;;;;;;11.94;56.60;99230.17;1753186;80;21173;-83
2021/04/02 02:18:57;;;;;;;24.00;16.63;;;;;;;11.93;56.61;99234.71;1726977;81;20473;-83
2021/04/02 02:21:27;;;;;;;19.53;16.47;;;;;;;11.90;56.67;99234.34;1734872;81;21153;-82
2021/04/02 02:23:56;;;;;;;21.53;16.50;;;;;;;11.90;56.74;99230.33;1743085;80;21061;-82
2021/04/02 02:26:25;;;;;;;18.90;16.90;;;;;;;11.92;56.71;99230.39;1757323;80;21156;-83
2021/04/02 02:28:54;;;;;;;19.60;15.40;;;;;;;11.93;56.68;99227.23;1732956;81;21313;-82
2021/04/02 02:31:22;;;;;;;20.80;17.07;;;;;;;11.94;56.67;99227.01;1729500;82;21120;-83
2021/04/02 02:33:49;;;;;;;19.63;17.47;;;;;;;11.97;56.70;99229.74;1729699;80;21475;-83
2021/04/02 02:36:37;;;;;;;21.73;16.52;;;;;;;12.01;56.69;99233.06;1763247;79;23221;-90
2021/04/02 02:39:11;;;;;;;20.13;17.53;;;;;;;11.99;56.70;99231.66;1740286;82;21153;-89
2021/04/02 02:41:41;;;;;;;23.60;17.93;;;;;;;11.99;56.73;99219.12;1675357;83;21191;-90
2021/04/02 02:44:10;;;;;;;17.90;16.00;;;;;;;11.97;56.83;99209.71;1700693;81;21176;-85
2021/04/02 02:46:38;;;;;;;19.70;17.35;;;;;;;11.93;56.86;99205.34;1659884;85;21158;-89
2021/04/02 02:49:16;;;;;;;21.90;17.57;;;;;;;11.90;56.87;99215.13;1650863;85;21174;-88
2021/04/02 02:51:48;;;;;;;19.27;17.27;;;;;;;11.87;56.84;99215.56;1655687;85;21147;-87
2021/04/02 02:54:20;;;;;;;20.05;17.35;;;;;;;11.87;56.71;99212.89;1631238;86;21195;-88
2021/04/02 02:56:52;;;;;;;20.60;15.83;;;;;;;11.87;56.67;99213.70;1658950;85;21043;-88
2021/04/02 02:59:23;;;;;;;20.95;15.65;;;;;;;11.86;56.76;99217.39;1631015;86;21119;-86
2021/04/02 03:01:54;;;;;;;23.67;18.75;;;;;;;11.90;56.69;99220.98;1630785;86;21121;-86
2021/04/02 03:04:24;;;;;;;22.83;20.30;;;;;;;11.87;56.65;99224.37;1665068;85;21750;-87
2021/04/02 03:06:54;;;;;;;23.35;18.02;;;;;;;11.85;56.68;99227.79;1641701;85;21522;-85
2021/04/02 03:09:23;;;;;;;20.15;18.07;;;;;;;11.84;56.68;99230.68;1657375;85;21144;-85
2021/04/02 03:11:53;;;;;;;19.07;17.07;;;;;;;11.84;56.59;99238.16;1641040;85;21195;-82
2021/04/02 03:14:24;;;;;;;19.55;17.48;;;;;;;11.75;56.50;99220.00;1616583;86;21199;-87
2021/04/02 03:16:54;;;;;;;24.20;18.93;;;;;;;11.88;56.42;99228.69;1625849;86;21688;-80
2021/04/02 03:19:25;;;;;;;19.33;17.27;;;;;;;11.88;56.29;99231.36;1621431;86;21675;-84
2021/04/02 03:21:58;;;;;;;24.13;16.90;;;;;;;11.87;56.16;99228.91;1622409;86;21218;-85
2021/04/02 03:24:36;;;;;;;17.35;15.38;;;;;;;11.87;56.00;99235.05;1626543;86;21245;-85
2021/04/02 03:27:07;;;;;;;17.80;15.97;;;;;;;11.89;55.40;99236.17;1621547;87;21364;-85
2021/04/02 03:29:35;;;;;;;19.53;16.17;;;;;;;11.91;55.37;99231.98;1634258;87;21176;-84
2021/04/02 03:32:09;;;;;;;16.35;14.60;;;;;;;11.92;55.26;99227.72;1620344;87;21180;-84
2021/04/02 03:34:39;;;;;;;18.77;16.33;;;;;;;11.95;54.79;99231.82;1641530;84;21583;-85
2021/04/02 03:37:10;;;;;;;21.47;15.47;;;;;;;11.28;54.49;99121.30;1665454;85;21173;-84
2021/04/02 03:39:42;;;;;;;19.27;15.00;;;;;;;12.01;54.52;99226.91;1649250;86;21263;-84
2021/04/02 03:42:12;;;;;;;17.70;15.83;;;;;;;12.05;54.45;99230.76;1649255;85;21220;-85
2021/04/02 03:44:43;;;;;;;18.87;15.75;;;;;;;12.11;54.09;99238.39;1646518;84;21275;-85
2021/04/02 03:47:15;;;;;;;20.87;15.67;;;;;;;12.11;54.03;99233.89;1652742;85;21152;-86
2021/04/02 03:49:44;;;;;;;18.98;15.13;;;;;;;12.13;53.63;99230.96;1659917;85;21634;-85
2021/04/02 03:52:20;;;;;;;19.45;16.10;;;;;;;12.11;53.55;99231.22;1670705;85;21299;-84
2021/04/02 03:54:52;;;;;;;23.80;16.37;;;;;;;12.12;53.60;99226.68;1662380;85;21647;-85
2021/04/02 03:57:24;;;;;;;18.82;14.78;;;;;;;12.10;53.55;99229.57;1649912;84;21053;-85
2021/04/02 03:59:54;;;;;;;19.30;16.50;;;;;;;12.08;53.41;99219.11;1623836;85;21315;-84
2021/04/02 04:02:21;;;;;;;19.23;16.80;;;;;;;12.09;53.41;99225.25;1650796;85;21093;-85
2021/04/02 04:04:53;;;;;;;17.80;15.65;;;;;;;12.06;53.52;99217.19;1649459;85;21207;-85
2021/04/02 04:07:24;;;;;;;17.50;15.43;;;;;;;12.04;54.24;99221.13;1664935;85;21622;-84
2021/04/02 04:09:55;;;;;;;19.82;16.93;;;;;;;12.03;53.62;99214.95;1636910;85;21193;-86
2021/04/02 04:12:25;;;;;;;17.87;15.73;;;;;;;12.02;53.84;99220.55;1652744;84;21250;-85
2021/04/02 04:14:55;;;;;;;23.07;18.17;;;;;;;12.00;53.63;99215.42;1629715;87;21216;-85
2021/04/02 04:17:43;;;;;;;20.90;16.80;;;;;;;12.04;53.71;99202.44;1813471;77;23076;-85
2021/04/02 04:20:13;;;;;;;23.23;17.50;;;;;;;11.98;53.80;99192.13;1816505;78;21303;-85
2021/04/02 04:22:48;;;;;;;19.20;16.90;;;;;;;11.94;53.82;99192.30;1807443;78;21545;-85
2021/04/02 04:25:23;;;;;;;24.83;18.73;;;;;;;11.89;54.06;99189.45;1793630;78;21174;-85
2021/04/02 04:27:53;;;;;;;22.30;18.27;;;;;;;11.81;53.96;99189.73;1788887;78;21138;-83
2021/04/02 04:30:22;;;;;;;19.27;15.80;;;;;;;11.73;54.17;99191.38;1789179;78;21160;-84
2021/04/02 04:32:50;;;;;;;21.73;18.27;;;;;;;11.66;54.58;99197.62;1790826;78;21590;-85
2021/04/02 04:35:19;;;;;;;25.62;18.32;;;;;;;11.63;54.62;99199.92;1788064;78;21132;-86
2021/04/02 04:37:48;;;;;;;23.73;17.03;;;;;;;11.59;54.66;99194.73;1782210;78;21212;-84
2021/04/02 04:40:18;;;;;;;20.33;18.20;;;;;;;11.55;54.76;99193.03;1763196;79;21190;-84
2021/04/02 04:42:48;;;;;;;19.63;17.53;;;;;;;11.53;54.82;99182.27;1726033;81;21704;-85
2021/04/02 04:45:19;;;;;;;23.63;17.37;;;;;;;11.49;54.87;99175.25;1749276;81;21404;-83
2021/04/02 04:47:48;;;;;;;21.47;19.13;;;;;;;11.47;54.98;99177.30;1710785;82;22149;-84
2021/04/02 04:50:16;;;;;;;23.37;19.10;;;;;;;11.45;55.06;99180.21;1740965;81;21119;-83
2021/04/02 04:52:54;;;;;;;24.60;17.80;;;;;;;11.42;55.07;99176.64;1747426;81;21151;-83
2021/04/02 04:55:23;;;;;;;22.67;19.23;;;;;;;11.42;55.15;99168.64;1745241;80;21657;-82
2021/04/02 04:57:53;;;;;;;22.75;19.07;;;;;;;11.40;55.13;99168.58;1698684;84;21376;-83
2021/04/02 05:00:23;;;;;;;21.73;18.13;;;;;;;11.38;55.14;99176.80;1712498;82;21190;-83
2021/04/02 05:02:54;;;;;;;22.57;18.83;;;;;;;11.36;55.18;99184.20;1683935;85;21329;-84
2021/04/02 05:05:37;;;;;;;23.80;19.48;;;;;;;11.38;55.20;99179.98;1677955;85;21208;-84
2021/04/02 05:08:07;;;;;;;19.60;17.60;;;;;;;11.40;55.27;99181.39;1658456;85;21229;-85
2021/04/02 05:10:39;;;;;;;22.60;17.33;;;;;;;11.42;55.26;99193.98;1714060;83;21198;-84
2021/04/02 05:13:09;;;;;;;21.43;18.50;;;;;;;11.43;55.52;99192.96;1660609;85;21103;-81
2021/04/02 05:15:39;;;;;;;25.33;18.27;;;;;;;11.44;55.53;99204.44;1655295;85;21688;-83
2021/04/02 05:18:07;;;;;;;26.63;19.90;;;;;;;11.47;55.51;99205.31;1668567;84;21211;-85
2021/04/02 05:20:42;;;;;;;20.87;18.50;;;;;;;11.53;55.36;99213.79;1676635;84;21206;-84
2021/04/02 05:23:12;;;;;;;21.07;18.00;;;;;;;11.58;55.25;99207.24;1678670;84;21089;-87
2021/04/02 05:25:42;;;;;;;24.30;20.77;;;;;;;11.61;55.39;99212.15;1681240;84;21168;-88
2021/04/02 05:28:10;;;;;;;26.13;20.53;;;;;;;11.63;55.23;99211.93;1683178;85;21194;-85
2021/04/02 05:30:38;;;;;;;25.83;20.00;;;;;;;11.61;55.37;99213.48;1681318;81;21251;-83
2021/04/02 05:33:07;;;;;;;25.52;20.23;;;;;;;11.65;55.38;99204.52;1631751;84;21698;-84
2021/04/02 05:35:35;;;;;;;26.85;20.68;;;;;;;11.71;55.41;99193.47;1657915;85;21211;-88
2021/04/02 05:38:05;;;;;;;24.90;19.90;;;;;;;11.74;55.58;99197.03;1680714;82;21316;-85
2021/04/02 05:40:36;;;;;;;23.77;19.37;;;;;;;11.74;56.12;99204.52;1680938;82;21147;-87
2021/04/02 05:43:15;;;;;;;21.17;17.75;;;;;;;11.73;56.82;99204.20;1658787;86;21249;-88
2021/04/02 05:45:42;;;;;;;22.97;19.63;;;;;;;11.71;57.38;99205.47;1638195;85;21288;-87
2021/04/02 05:48:10;;;;;;;28.27;20.37;;;;;;;11.65;57.69;99203.18;1606210;88;21568;-87
2021/04/02 05:50:38;;;;;;;27.48;21.68;;;;;;;11.61;58.64;99211.34;1628943;86;21204;-84
2021/04/02 05:53:09;;;;;;;27.93;23.73;;;;;;;11.54;59.94;99219.93;1630934;88;21494;-87
2021/04/02 05:55:43;;;;;;;25.53;22.37;;;;;;;11.40;60.61;99216.08;1628363;87;21097;-89
2021/04/02 05:58:13;;;;;;;19.83;17.73;;;;;;;11.40;61.74;99208.59;1631484;86;21188;-88
2021/04/02 06:00:41;;;;;;;23.80;20.03;;;;;;;11.46;62.89;99207.70;1626343;85;21085;-92
2021/04/02 06:03:09;;;;;;;23.47;20.53;;;;;;;11.38;63.81;99206.14;1650668;85;21212;-92
2021/04/02 06:05:36;;;;;;;24.83;20.90;;;;;;;11.15;65.03;99193.45;1673359;85;21172;-90
2021/04/02 06:08:06;;;;;;;25.00;20.60;;;;;;;10.93;65.83;99192.22;1672423;84;21217;-86
2021/04/02 06:10:34;;;;;;;26.20;20.40;;;;;;;10.75;66.82;99172.98;1682757;84;21245;-89
2021/04/02 06:13:03;;;;;;;22.07;19.60;;;;;;;10.66;67.95;99161.27;1679990;80;21546;-88
2021/04/02 06:15:34;;;;;;;22.77;20.13;;;;;;;10.70;68.42;99143.00;1670003;84;21657;-90
2021/04/02 06:18:07;;;;;;;26.83;20.63;;;;;;;10.65;68.74;99136.97;1658428;83;21201;-91
2021/04/02 06:20:45;;;;;;;23.23;20.73;;;;;;;10.55;69.47;99146.48;1678289;83;21181;-86
2021/04/02 06:23:20;;;;;;;27.60;22.60;;;;;;;10.44;69.34;99153.35;1697905;82;21116;-89
2021/04/02 06:26:04;;;;;;;31.83;22.13;;;;;;;10.37;70.03;99154.72;1697894;83;21199;-88
2021/04/02 06:28:37;;;;;;;28.30;23.30;;;;;;;10.42;70.39;99154.08;1698130;83;21326;-87
2021/04/02 06:31:15;;;;;;;29.27;23.77;;;;;;;10.54;69.87;99157.66;1698012;83;21219;-89
2021/04/02 06:33:52;;;;;;;25.70;21.97;;;;;;;10.54;70.06;99155.53;1680641;84;21121;-91
2021/04/02 06:36:31;;;;;;;25.77;22.07;;;;;;;10.49;70.94;99146.84;1664139;85;21689;-93
2021/04/02 06:39:14;;;;;;;33.90;25.50;;;;;;;10.42;70.70;99143.43;1674208;84;21236;-92
2021/04/02 06:41:43;;;;;;;24.90;21.07;;;;;;;10.38;70.90;99129.73;1650394;85;21359;-91
2021/04/02 06:44:15;;;;;;;30.57;22.47;;;;;;;10.45;71.10;99135.83;1674552;82;21213;-92
2021/04/02 06:46:43;;;;;;;30.03;22.43;;;;;;;10.60;70.98;99150.66;1679074;85;21338;-92
2021/04/02 06:49:19;;;;;;;25.47;21.77;;;;;;;10.68;71.68;99161.03;1691540;81;21114;-96
2021/04/02 06:51:50;;;;;;;27.10;23.43;;;;;;;10.65;74.24;99169.48;1674275;84;21204;-95
2021/04/02 06:54:27;;;;;;;26.63;22.27;;;;;;;10.59;73.42;99195.14;1673070;82;21210;-92
2021/04/02 06:57:07;;;;;;;27.90;22.87;;;;;;;10.61;73.72;99211.73;1685050;83;21228;-91
2021/04/02 06:59:40;;;;;;;24.40;21.73;;;;;;;10.74;73.81;99220.64;1668791;86;21200;-90
2021/04/02 07:02:18;;;;;;;24.73;20.83;;;;;;;10.77;74.31;99222.36;1662677;84;21223;-94
2021/04/02 07:05:12;;;;;;;26.53;23.67;;;;;;;10.74;74.78;99233.97;1687376;82;21650;-94
2021/04/02 07:07:45;;;;;;;27.30;22.50;;;;;;;10.71;74.47;99237.37;1663313;84;21192;-95
2021/04/02 07:10:17;;;;;;;23.40;20.90;;;;;;;10.76;74.37;99246.06;1699549;81;21196;-94
2021/04/02 07:12:51;;;;;;;23.43;21.10;;;;;;;10.86;73.99;99252.25;1663927;84;21045;-94
2021/04/02 07:15:21;;;;;;;19.92;17.92;;;;;;;10.85;74.33;99255.93;1697161;83;21152;-95
2021/04/02 07:17:51;;;;;;;18.53;16.70;;;;;;;10.74;74.72;99247.30;1667566;82;21177;-91
2021/04/02 07:20:20;;;;;;;15.13;13.43;;;;;;;10.65;74.30;99254.23;1681297;82;21335;-95
2021/04/02 07:22:51;;;;;;;14.27;12.73;;;;;;;10.63;73.94;99267.48;1682927;84;21069;-94
2021/04/02 07:25:20;;;;;;;16.17;12.17;;;;;;;10.61;73.65;99262.36;1701558;84;21153;-96
2021/04/02 07:27:51;;;;;;;14.20;12.03;;;;;;;10.55;73.66;99268.55;1700122;82;21141;-96
2021/04/02 07:30:22;;;;;;;15.17;11.10;;;;;;;10.38;73.24;99278.05;1713068;82;21239;-95
2021/04/02 07:32:51;;;;;;;12.80;11.10;;;;;;;10.19;73.33;99271.77;1666924;85;21145;-93
2021/04/02 07:35:22;;;;;;;10.10;9.10;;;;;;;10.11;73.43;99282.14;1684967;83;21090;-93
2021/04/02 07:37:56;;;;;;;13.37;11.00;;;;;;;10.06;73.90;99284.64;1645217;83;21186;-93
2021/04/02 07:40:34;;;;;;;17.13;10.23;;;;;;;9.87;74.23;99290.31;1693505;83;21212;-94
2021/04/02 07:43:08;;;;;;;14.27;10.67;;;;;;;9.59;75.36;99302.55;1687493;83;21150;-94
2021/04/02 07:45:38;;;;;;;15.40;10.57;;;;;;;9.49;75.67;99310.96;1687601;84;21268;-96
2021/04/02 07:48:25;;;;;;;19.37;11.33;;;;;;;9.33;75.55;99308.22;1684096;81;22041;-96
2021/04/02 07:50:59;;;;;;;13.43;9.73;;;;;;;9.16;76.21;99307.81;1676072;81;21195;-87
2021/04/02 07:53:32;;;;;;;11.60;9.93;;;;;;;9.01;76.58;99315.98;1689610;84;21280;-96
2021/04/02 07:56:11;;;;;;;14.57;9.70;;;;;;;8.92;76.63;99314.53;1657862;85;21101;-87
2021/04/02 07:58:53;;;;;;;12.17;8.07;;;;;;;8.57;76.06;99266.88;1651617;85;21184;-85
2021/04/02 08:01:23;;;;;;;11.17;9.33;;;;;;;8.74;75.90;99321.78;1644068;84;21225;-85
2021/04/02 08:03:53;;;;;;;13.23;9.13;;;;;;;8.64;75.93;99342.58;1646371;86;21184;-85
2021/04/02 08:06:35;;;;;;;9.53;8.23;;;;;;;8.51;76.29;99348.17;1635073;85;21769;-87
2021/04/02 08:09:08;;;;;;;8.77;7.00;;;;;;;8.48;76.45;99347.75;1647798;85;21331;-86
2021/04/02 08:11:44;;;;;;;8.20;7.40;;;;;;;8.46;76.29;99340.50;1657319;83;21214;-88
2021/04/02 08:14:13;;;;;;;8.40;7.50;;;;;;;8.36;76.18;99344.30;1707275;82;21618;-91
2021/04/02 08:18:25;;;;;;;14.70;6.87;;;;;;;8.20;77.57;99348.62;1832424;76;23539;-87
2021/04/02 08:20:55;;;;;;;5.60;4.83;;;;;;;8.06;77.32;99345.57;1815276;78;21134;-87
2021/04/02 08:23:24;;;;;;;9.40;5.93;;;;;;;8.01;77.34;99362.09;1810054;78;21058;-86
2021/04/02 08:25:56;;;;;;;8.83;5.73;;;;;;;7.89;77.97;99357.01;1748201;80;21683;-85
2021/04/02 08:28:26;;;;;;;8.13;7.30;;;;;;;7.84;77.92;99365.56;1775279;80;21171;-86
2021/04/02 08:30:54;;;;;;;7.80;6.47;;;;;;;7.75;77.76;99373.36;1791630;79;21165;-87
2021/04/02 08:33:23;;;;;;;9.37;5.93;;;;;;;7.72;77.73;99375.06;1790795;80;21281;-90
2021/04/02 08:35:50;;;;;;;7.20;5.77;;;;;;;7.74;77.73;99373.88;1762992;81;21272;-85
2021/04/02 08:38:21;;;;;;;6.47;5.03;;;;;;;7.76;77.42;99375.83;1763055;81;21183;-88
2021/04/02 08:40:48;;;;;;;4.90;4.17;;;;;;;7.76;77.43;99385.59;1761351;81;21174;-87
2021/04/02 08:43:18;;;;;;;7.93;4.40;;;;;;;7.66;76.84;99387.27;1730708;81;21479;-87
2021/04/02 08:45:46;;;;;;;3.53;3.17;;;;;;;7.55;77.18;99385.13;1759381;80;21662;-87
2021/04/02 08:48:24;;;;;;;4.33;3.50;;;;;;;7.51;77.50;99386.53;1755611;80;21625;-86
2021/04/02 08:50:54;;;;;;;4.93;3.53;;;;;;;7.51;76.72;99388.67;1763552;80;21563;-86
2021/04/02 08:53:24;;;;;;;5.10;2.70;;;;;;;7.39;76.87;99394.19;1760791;80;21327;-86
2021/04/02 08:55:55;;;;;;;3.20;2.73;;;;;;;7.30;77.25;99394.01;1718152;82;21095;-85
2021/04/02 08:58:24;;;;;;;3.67;2.80;;;;;;;7.32;77.86;99393.31;1694964;84;21220;-85
2021/04/02 09:00:52;;;;;;;2.53;2.07;;;;;;;7.38;77.24;99392.05;1679835;84;21421;-85
2021/04/02 09:03:23;;;;;;;7.50;3.40;;;;;;;7.39;78.17;99396.33;1660320;84;21148;-88
2021/04/02 09:05:51;;;;;;;3.77;2.70;;;;;;;7.35;77.97;99391.61;1689177;84;21164;-84
2021/04/02 09:08:22;;;;;;;2.37;1.67;;;;;;;7.35;78.08;99402.22;1682202;84;21176;-83
2021/04/02 09:10:49;;;;;;;2.17;1.60;;;;;;;7.39;76.77;99390.22;1689376;84;21120;-83
2021/04/02 09:13:41;;;;;;;2.53;2.33;;;;;;;7.40;77.17;99393.16;1697157;84;21079;-87
2021/04/02 09:16:14;;;;;;;0.77;0.77;;;;;;;7.31;77.26;99389.84;1664936;84;21191;-84
2021/04/02 09:18:52;;;;;;;0.73;0.70;;;;;;;7.13;76.55;99391.60;1671404;84;21184;-84
2021/04/02 09:21:25;;;;;;;1.90;0.67;;;;;;;7.09;76.74;99391.67;1677581;84;21199;-85
2021/04/02 09:23:57;;;;;;;0.60;0.60;;;;;;;7.09;76.64;99395.64;1690922;83;21570;-86
2021/04/02 09:26:27;;;;;;;1.40;0.80;;;;;;;7.02;76.61;99406.67;1665838;84;21232;-88
2021/04/02 09:28:59;;;;;;;0.83;0.50;;;;;;;6.94;76.93;99407.61;1679450;85;21192;-85
2021/04/02 09:31:32;;;;;;;1.80;1.10;;;;;;;7.00;76.32;99405.53;1695992;84;21763;-87
2021/04/02 09:34:06;;;;;;;0.50;0.47;;;;;;;6.95;75.92;99412.40;1688092;83;21088;-87
2021/04/02 09:36:41;;;;;;;0.57;0.57;;;;;;;6.77;76.27;99403.56;1678071;84;21634;-87
2021/04/02 09:39:18;;;;;;;1.13;0.30;;;;;;;6.66;76.23;99408.02;1687629;84;22234;-87
2021/04/02 09:41:58;;;;;;;2.30;0.30;;;;;;;6.67;76.13;99406.98;1673694;85;21195;-88
2021/04/02 09:44:31;;;;;;;1.30;0.90;;;;;;;6.66;77.13;99412.80;1662309;82;21739;-87
2021/04/02 09:47:09;;;;;;;0.90;0.87;;;;;;;6.55;77.44;99411.95;1654042;85;21174;-87
2021/04/02 09:49:42;;;;;;;0.80;0.70;;;;;;;6.50;77.57;99409.87;1670407;84;21183;-88
2021/04/02 09:52:11;;;;;;;1.03;0.83;;;;;;;6.59;77.76;99411.41;1683909;85;21179;-88
2021/04/02 09:54:38;;;;;;;0.73;0.67;;;;;;;6.56;77.41;99408.31;1670508;84;21175;-87
2021/04/02 09:57:10;;;;;;;1.10;0.67;;;;;;;6.46;77.71;99407.27;1694940;82;21246;-89
2021/04/02 09:59:38;;;;;;;2.27;0.80;;;;;;;6.39;78.18;99411.66;1694788;83;22364;-86
2021/04/02 10:02:05;;;;;;;1.40;0.67;;;;;;;6.45;77.91;99409.59;1686622;83;21075;-87
2021/04/02 10:04:36;;;;;;;1.53;0.80;;;;;;;6.50;78.20;99412.52;1670055;85;21199;-87
2021/04/02 10:07:13;;;;;;;1.67;0.87;;;;;;;6.52;77.96;99405.20;1672466;83;21225;-85
2021/04/02 10:09:44;;;;;;;0.40;0.30;;;;;;;6.41;78.24;99406.48;1679520;84;21160;-85
2021/04/02 10:12:15;;;;;;;1.40;0.50;;;;;;;6.41;78.46;99409.13;1674685;83;21657;-86
2021/04/02 10:14:44;;;;;;;0.60;0.60;;;;;;;6.53;77.89;99406.83;1715199;82;21161;-85
2021/04/02 10:17:11;;;;;;;0.80;0.13;;;;;;;6.58;77.13;99404.97;1697362;83;21424;-86
2021/04/02 10:19:44;;;;;;;0.20;0.20;;;;;;;6.54;76.79;99403.70;1671639;85;21207;-86
2021/04/02 10:22:13;;;;;;;0.20;0.10;;;;;;;6.50;76.40;99415.16;1680209;83;21171;-88
2021/04/02 10:24:40;;;;;;;0.23;0.10;;;;;;;6.53;76.44;99410.80;1680413;85;21313;-89
2021/04/02 10:27:19;;;;;;;0.20;0.10;;;;;;;6.52;75.96;99416.30;1679958;84;21738;-86
2021/04/02 10:29:46;;;;;;;2.77;0.57;;;;;;;6.28;76.66;99390.44;1679350;85;21553;-86
2021/04/02 10:32:14;;;;;;;2.57;0.20;;;;;;;6.41;76.39;99412.29;1676318;84;21196;-89
2021/04/02 10:34:42;;;;;;;0.20;0.10;;;;;;;6.46;76.41;99426.28;1662319;83;21091;-86
2021/04/02 10:37:12;;;;;;;0.20;0.10;;;;;;;6.56;76.16;99420.22;1695296;84;21198;-86
2021/04/02 10:39:40;;;;;;;0.10;0.10;;;;;;;6.59;75.39;99420.67;1689255;83;21180;-82
2021/04/02 10:42:07;;;;;;;0.20;0.10;;;;;;;6.51;76.11;99428.70;1673289;84;21575;-83
2021/04/02 10:44:36;;;;;;;0.70;0.10;;;;;;;6.47;76.42;99420.00;1700675;84;21084;-87
2021/04/02 10:47:06;;;;;;;0.30;0.00;;;;;;;6.52;76.03;99430.36;1678339;84;21191;-88
2021/04/02 10:49:35;;;;;;;0.10;0.10;;;;;;;6.51;75.05;99422.08;1698572;84;21618;-88
2021/04/02 10:52:02;;;;;;;0.23;0.10;;;;;;;6.46;74.86;99421.84;1666907;84;21191;-85
2021/04/02 10:54:29;;;;;;;0.00;0.00;;;;;;;6.28;75.37;99416.91;1692739;84;21187;-86
2021/04/02 10:56:56;;;;;;;1.70;0.10;;;;;;;6.19;75.61;99425.94;1679082;84;21075;-86
2021/04/02 10:59:23;;;;;;;0.50;0.10;;;;;;;6.22;75.14;99443.59;1653357;85;21207;-84
2021/04/02 11:01:51;;;;;;;0.20;0.10;;;;;;;6.25;75.31;99449.02;1696263;84;21797;-85
2021/04/02 11:04:20;;;;;;;0.10;0.10;;;;;;;6.18;74.75;99440.19;1641357;85;21721;-85
2021/04/02 11:06:48;;;;;;;0.20;0.20;;;;;;;6.08;74.84;99443.58;1667779;84;21235;-84
2021/04/02 11:09:17;;;;;;;1.13;0.37;;;;;;;6.04;74.62;99436.50;1694967;84;21140;-86
2021/04/02 11:11:45;;;;;;;0.37;0.10;;;;;;;6.03;74.26;99447.59;1659333;84;21104;-86
2021/04/02 11:14:13;;;;;;;1.73;0.10;;;;;;;6.00;73.98;99451.91;1682227;85;21180;-86
2021/04/02 11:16:40;;;;;;;1.70;0.20;;;;;;;5.88;75.04;99455.98;1673275;85;21183;-86
2021/04/02 11:19:08;;;;;;;1.07;0.10;;;;;;;5.68;75.13;99421.27;1663653;85;21220;-84
2021/04/02 11:21:39;;;;;;;0.40;0.10;;;;;;;5.91;75.21;99445.53;1662988;85;21192;-79
2021/04/02 11:24:06;;;;;;;0.80;0.10;;;;;;;5.88;75.77;99448.52;1676323;85;21099;-78
2021/04/02 11:26:37;;;;;;;0.43;0.10;;;;;;;5.83;75.79;99447.75;1672493;85;21324;-82
2021/04/02 11:29:05;;;;;;;0.10;0.10;;;;;;;5.83;74.99;99455.18;1667746;85;21195;-82
2021/04/02 11:31:32;;;;;;;0.60;0.30;;;;;;;5.91;74.54;99456.11;1678312;85;21893;-81
2021/04/02 11:33:59;;;;;;;0.50;0.20;;;;;;;5.87;74.32;99457.48;1646085;84;21124;-83
2021/04/02 11:36:27;;;;;;;0.13;0.13;;;;;;;5.77;75.53;99441.87;1640338;86;21256;-81
2021/04/02 11:38:55;;;;;;;0.33;0.33;;;;;;;5.78;75.35;99449.63;1641818;87;21177;-84
2021/04/02 11:41:22;;;;;;;0.30;0.10;;;;;;;5.87;74.73;99457.48;1695525;84;21440;-84
2021/04/02 11:43:49;;;;;;;0.10;0.10;;;;;;;5.84;74.81;99457.34;1705879;83;21912;-83
2021/04/02 11:46:18;;;;;;;0.30;0.27;;;;;;;5.77;75.19;99456.41;1668707;82;21091;-82
2021/04/02 11:48:46;;;;;;;0.27;0.10;;;;;;;5.76;75.37;99458.72;1667506;85;21172;-81